Time;durP1;ratioP1;P1;durP2;ratioP2;P2;SDS_P1;SDS_P2;PMS_P1;PMS_P2;Temp;Humidity;BMP_temperature;BMP_pressure;BME280_temperature;BME280_humidity;BME280_pressure;Samples;Min_cycle;Max_cycle;Signal;HPM_P1;HPM_P2
2022/04/02 00:02:17;;;;;;;4.78;2.67;;;;;;;-147.05;100.00;58721.66;5103854;28;20506;-66
2022/04/02 00:04:44;;;;;;;5.90;3.15;;;;;;;-147.05;100.00;58721.66;5116707;28;20083;-65
2022/04/02 00:07:12;;;;;;;4.47;2.70;;;;;;;-147.05;100.00;58721.66;5107223;27;20036;-65
2022/04/02 00:09:40;;;;;;;5.30;2.70;;;;;;;-147.05;100.00;58721.66;5116048;27;20061;-66
2022/04/02 00:12:08;;;;;;;4.53;2.75;;;;;;;-147.05;100.00;58721.66;5117891;28;20040;-66
2022/04/02 00:14:35;;;;;;;4.80;3.00;;;;;;;-147.05;100.00;58721.66;5108527;27;20044;-66
2022/04/02 00:17:03;;;;;;;4.15;2.80;;;;;;;-147.05;100.00;58721.66;5110331;27;20044;-66
2022/04/02 00:19:31;;;;;;;3.50;2.42;;;;;;;-147.05;100.00;58721.66;5117598;27;20048;-66
2022/04/02 00:21:58;;;;;;;4.80;2.85;;;;;;;-147.05;100.00;58721.66;5105123;28;20051;-65
2022/04/02 00:24:25;;;;;;;3.80;2.50;;;;;;;-147.05;100.00;58721.66;5109917;27;20039;-65
2022/04/02 00:26:52;;;;;;;6.90;2.67;;;;;;;-147.05;100.00;58721.66;5115841;28;20056;-65
2022/04/02 00:29:20;;;;;;;5.50;2.83;;;;;;;-147.05;100.00;58721.66;5114775;28;20164;-65
2022/04/02 00:31:47;;;;;;;5.00;2.95;;;;;;;-147.05;100.00;58721.66;5117765;28;20105;-65
2022/04/02 00:34:14;;;;;;;3.85;2.53;;;;;;;-147.05;100.00;58721.66;5117664;28;20040;-66
2022/04/02 00:36:41;;;;;;;4.47;2.92;;;;;;;-147.05;100.00;58721.66;5111463;28;20145;-65
2022/04/02 00:39:09;;;;;;;7.80;2.70;;;;;;;-147.05;100.00;58721.66;5113370;27;20043;-65
2022/04/02 00:41:37;;;;;;;5.72;2.47;;;;;;;-147.05;100.00;58721.66;5120025;28;20486;-66
2022/04/02 00:44:12;;;;;;;6.25;2.28;;;;;;;-147.05;100.00;58721.66;5118734;27;20033;-66
2022/04/02 00:47:04;;;;;;;2.90;1.83;;;;;;;-147.05;100.00;58721.66;5111014;28;20040;-64
2022/04/02 00:49:31;;;;;;;5.18;2.33;;;;;;;-147.05;100.00;58721.66;5101423;28;20502;-66
2022/04/02 00:51:59;;;;;;;4.47;2.33;;;;;;;-147.05;100.00;58721.66;5116234;28;20123;-66
2022/04/02 00:54:26;;;;;;;4.93;2.30;;;;;;;-147.05;100.00;58721.66;5112640;27;20070;-67
2022/04/02 00:56:54;;;;;;;3.95;2.00;;;;;;;-147.05;100.00;58721.66;5111580;27;20040;-66
2022/04/02 00:59:21;;;;;;;5.57;2.10;;;;;;;-147.05;100.00;58721.66;5111269;28;20044;-64
2022/04/02 01:01:49;;;;;;;4.93;1.85;;;;;;;-147.05;100.00;58721.66;5108016;28;20037;-64
2022/04/02 01:04:19;;;;;;;4.72;1.70;;;;;;;-147.05;100.00;58721.66;5115904;28;20046;-63
2022/04/02 01:06:46;;;;;;;6.88;1.70;;;;;;;-147.05;100.00;58721.66;5111455;28;20037;-64
2022/04/02 01:09:19;;;;;;;2.20;1.30;;;;;;;-147.05;100.00;58721.66;5117906;27;20039;-64
2022/04/02 01:11:54;;;;;;;1.88;1.20;;;;;;;-147.05;100.00;58721.66;5117404;28;20117;-64
2022/04/02 01:14:22;;;;;;;2.53;1.25;;;;;;;-147.05;100.00;58721.66;5109641;28;20049;-65
2022/04/02 01:16:54;;;;;;;3.00;1.17;;;;;;;-147.05;100.00;58721.66;5112679;28;20059;-64
2022/04/02 01:19:25;;;;;;;2.22;1.15;;;;;;;-147.05;100.00;58721.66;5117331;28;20044;-64
2022/04/02 01:22:04;;;;;;;9.88;1.58;;;;;;;-147.05;100.00;58721.66;5102803;28;20055;-64
2022/04/02 01:24:40;;;;;;;3.35;1.27;;;;;;;-147.05;100.00;58721.66;5111259;28;20032;-65
2022/04/02 01:27:08;;;;;;;2.35;1.02;;;;;;;-147.05;100.00;58721.66;5103427;28;20048;-64
2022/04/02 01:29:36;;;;;;;3.80;1.40;;;;;;;-147.05;100.00;58721.66;5110748;28;20089;-66
2022/04/02 01:32:09;;;;;;;2.35;1.20;;;;;;;-147.05;100.00;58721.66;5112169;28;20071;-64
2022/04/02 01:34:38;;;;;;;1.90;1.02;;;;;;;-147.05;100.00;58721.66;5115489;28;20067;-64
2022/04/02 01:37:15;;;;;;;2.40;1.25;;;;;;;-147.05;100.00;58721.66;5117018;28;20583;-64
2022/04/02 01:39:51;;;;;;;3.08;1.23;;;;;;;-147.05;100.00;58721.66;5108828;28;20123;-64
2022/04/02 01:42:24;;;;;;;2.75;1.50;;;;;;;-147.05;100.00;58721.66;5105329;28;20041;-64
2022/04/02 01:45:00;;;;;;;3.75;1.33;;;;;;;-147.05;100.00;58721.66;5115207;28;20044;-65
2022/04/02 01:47:37;;;;;;;3.40;1.52;;;;;;;-147.05;100.00;58721.66;5104734;28;20044;-65
2022/04/02 01:50:06;;;;;;;2.30;1.27;;;;;;;-147.05;100.00;58721.66;5108643;28;20128;-65
2022/04/02 01:52:38;;;;;;;4.18;1.50;;;;;;;-147.05;100.00;58721.66;5111660;28;20051;-65
2022/04/02 01:55:10;;;;;;;3.00;1.67;;;;;;;-147.05;100.00;58721.66;5111323;28;20051;-65
2022/04/02 01:57:41;;;;;;;4.15;1.27;;;;;;;-147.05;100.00;58721.66;5112040;28;20150;-64
2022/04/02 02:00:13;;;;;;;3.25;1.40;;;;;;;-147.05;100.00;58721.66;5117532;28;20044;-64
2022/04/02 02:02:45;;;;;;;3.35;1.67;;;;;;;-147.05;100.00;58721.66;5108736;28;20070;-66
2022/04/02 02:05:13;;;;;;;5.28;1.55;;;;;;;-147.05;100.00;58721.66;5112360;28;20047;-65
2022/04/02 02:07:48;;;;;;;2.95;1.42;;;;;;;-147.05;100.00;58721.66;5105147;28;20962;-64
2022/04/02 02:10:18;;;;;;;4.60;1.50;;;;;;;-147.05;100.00;58721.66;5107892;28;20055;-66
2022/04/02 02:13:03;;;;;;;3.08;1.33;;;;;;;-147.05;100.00;58721.66;5117834;28;20036;-67
2022/04/02 02:15:35;;;;;;;3.03;1.35;;;;;;;-147.05;100.00;58721.66;5106575;28;20040;-66
2022/04/02 02:18:05;;;;;;;3.75;1.75;;;;;;;-147.05;100.00;58721.66;5115765;28;20117;-66
2022/04/02 02:20:32;;;;;;;4.40;1.30;;;;;;;-147.05;100.00;58721.66;5120514;28;20051;-66
2022/04/02 02:22:59;;;;;;;2.30;1.30;;;;;;;-147.05;100.00;58721.66;5121218;28;20119;-66
2022/04/02 02:25:26;;;;;;;2.70;1.33;;;;;;;-147.05;100.00;58721.66;5103438;28;20076;-66
2022/04/02 02:27:53;;;;;;;2.33;1.30;;;;;;;-147.05;100.00;58721.66;5102958;28;20119;-66
2022/04/02 02:30:24;;;;;;;4.28;1.27;;;;;;;-147.05;100.00;58721.66;5109563;28;20049;-65
2022/04/02 02:35:49;;;;;;;3.30;1.38;;;;;;;-147.05;100.00;58721.66;5117989;27;20056;-65
2022/04/02 02:38:22;;;;;;;3.05;1.13;;;;;;;-147.05;100.00;58721.66;5070212;28;20033;-66
2022/04/02 02:41:06;;;;;;;2.78;1.50;;;;;;;-147.05;100.00;58721.66;5076496;28;20502;-65
2022/04/02 02:43:41;;;;;;;2.63;0.95;;;;;;;-147.05;100.00;58721.66;5056328;28;20049;-65
2022/04/02 02:46:36;;;;;;;3.50;1.13;;;;;;;-147.05;100.00;58721.66;5066459;28;20041;-65
2022/04/02 02:49:10;;;;;;;1.80;1.10;;;;;;;-147.05;100.00;58721.66;5068066;28;20048;-65
2022/04/02 02:51:41;;;;;;;1.20;0.70;;;;;;;-147.05;100.00;58721.66;5073330;28;20475;-65
2022/04/02 02:54:13;;;;;;;2.05;1.30;;;;;;;-147.05;100.00;58721.66;5089996;28;20184;-66
2022/04/02 02:56:40;;;;;;;2.85;1.40;;;;;;;-147.05;100.00;58721.66;5061655;28;20101;-66
2022/04/02 02:59:09;;;;;;;3.50;0.93;;;;;;;-147.05;100.00;58721.66;5075926;28;20033;-66
2022/04/02 03:01:35;;;;;;;3.13;1.20;;;;;;;-147.05;100.00;58721.66;5061320;28;20042;-66
2022/04/02 03:04:03;;;;;;;4.10;1.00;;;;;;;-147.05;100.00;58721.66;5060298;28;20111;-67
2022/04/02 03:06:33;;;;;;;3.60;1.30;;;;;;;-147.05;100.00;58721.66;5070613;28;20128;-67
2022/04/02 03:09:01;;;;;;;2.30;1.10;;;;;;;-147.05;100.00;58721.66;5075432;28;20053;-66
2022/04/02 03:11:29;;;;;;;1.90;1.00;;;;;;;-147.05;100.00;58721.66;5075314;28;20577;-65
2022/04/02 03:13:56;;;;;;;1.45;1.00;;;;;;;-147.05;100.00;58721.66;5065869;28;20041;-64
2022/04/02 03:16:24;;;;;;;3.47;1.00;;;;;;;-147.05;100.00;58721.66;5061017;28;20574;-64
2022/04/02 03:19:02;;;;;;;3.40;1.08;;;;;;;-147.05;100.00;58721.66;5068219;28;20491;-65
2022/04/02 03:21:30;;;;;;;4.15;0.90;;;;;;;-147.05;100.00;58721.66;5070210;28;20051;-65
2022/04/02 03:23:59;;;;;;;4.20;1.30;;;;;;;-147.05;100.00;58721.66;5064275;28;20041;-65
2022/04/02 03:26:29;;;;;;;2.42;1.10;;;;;;;-147.05;100.00;58721.66;5057711;28;20045;-65
2022/04/02 03:29:01;;;;;;;2.38;1.25;;;;;;;-147.05;100.00;58721.66;5067705;28;20565;-65
2022/04/02 03:31:28;;;;;;;10.73;1.60;;;;;;;-147.05;100.00;58721.66;5074295;28;20044;-67
2022/04/02 03:33:57;;;;;;;1.92;1.20;;;;;;;-147.05;100.00;58721.66;5066311;28;20042;-65
2022/04/02 03:36:25;;;;;;;2.92;1.65;;;;;;;-147.05;100.00;58721.66;5084476;28;20051;-65
2022/04/02 03:38:54;;;;;;;2.15;1.00;;;;;;;-147.05;100.00;58721.66;5103900;28;20089;-65
2022/04/02 03:41:23;;;;;;;3.05;1.75;;;;;;;-147.05;100.00;58721.66;5100546;28;20045;-65
2022/04/02 03:43:51;;;;;;;2.42;1.10;;;;;;;-147.05;100.00;58721.66;5111529;28;20090;-65
2022/04/02 03:49:13;;;;;;;6.80;2.03;;;;;;;-147.05;100.00;58721.66;5100230;28;20813;-65
2022/04/02 03:51:41;;;;;;;2.35;1.20;;;;;;;-147.05;100.00;58721.66;5112816;28;20074;-66
2022/04/02 03:54:13;;;;;;;1.77;1.50;;;;;;;-147.05;100.00;58721.66;5109208;28;20032;-65
2022/04/02 03:56:46;;;;;;;4.95;1.45;;;;;;;-147.05;100.00;58721.66;5115646;28;20047;-64
2022/04/02 03:59:15;;;;;;;3.42;1.45;;;;;;;-147.05;100.00;58721.66;5110022;28;20036;-65
2022/04/02 04:01:46;;;;;;;2.85;1.38;;;;;;;-147.05;100.00;58721.66;5115225;28;20056;-65
2022/04/02 04:04:14;;;;;;;3.03;1.10;;;;;;;-147.05;100.00;58721.66;5112226;28;20040;-65
2022/04/02 04:06:42;;;;;;;4.30;1.30;;;;;;;-147.05;100.00;58721.66;5110174;28;20048;-66
2022/04/02 04:09:10;;;;;;;2.35;1.20;;;;;;;-147.05;100.00;58721.66;5117570;28;20048;-66
2022/04/02 04:11:38;;;;;;;2.65;1.08;;;;;;;-147.05;100.00;58721.66;5118189;27;20531;-66
2022/04/02 04:14:05;;;;;;;2.88;1.38;;;;;;;-147.05;100.00;58721.66;5106901;28;20080;-66
2022/04/02 04:16:32;;;;;;;1.77;1.17;;;;;;;-147.05;100.00;58721.66;5108451;28;20047;-66
2022/04/02 04:19:00;;;;;;;2.85;1.33;;;;;;;-147.05;100.00;58721.66;5113969;28;20091;-65
2022/04/02 04:21:27;;;;;;;2.78;1.30;;;;;;;-147.05;100.00;58721.66;5110169;28;20111;-66
2022/04/02 04:23:55;;;;;;;5.22;1.30;;;;;;;-147.05;100.00;58721.66;5109521;28;20124;-66
2022/04/02 04:26:22;;;;;;;2.90;1.50;;;;;;;-147.05;100.00;58721.66;5114965;28;20121;-65
2022/04/02 04:28:52;;;;;;;2.28;1.50;;;;;;;-147.05;100.00;58721.66;5114691;28;20042;-66
2022/04/02 04:31:20;;;;;;;2.70;1.73;;;;;;;-147.05;100.00;58721.66;5116268;28;20040;-67
2022/04/02 04:33:48;;;;;;;2.92;1.65;;;;;;;-147.05;100.00;58721.66;5112751;28;20120;-66
2022/04/02 04:36:18;;;;;;;2.28;1.40;;;;;;;-147.05;100.00;58721.66;5099797;28;20532;-67
2022/04/02 04:38:47;;;;;;;3.28;1.80;;;;;;;-147.05;100.00;58721.66;5112865;28;20114;-66
2022/04/02 04:41:18;;;;;;;5.70;1.48;;;;;;;-147.05;100.00;58721.66;5135113;27;20131;-66
2022/04/02 04:43:48;;;;;;;3.60;1.52;;;;;;;-147.05;100.00;58721.66;5102907;28;20140;-65
2022/04/02 04:46:19;;;;;;;2.67;1.48;;;;;;;-147.05;100.00;58721.66;5118590;27;20072;-67
2022/04/02 04:48:49;;;;;;;2.83;1.52;;;;;;;-147.05;100.00;58721.66;5109824;28;20570;-65
2022/04/02 04:51:19;;;;;;;3.97;1.80;;;;;;;-147.05;100.00;58721.66;5106110;28;20554;-65
2022/04/02 04:53:50;;;;;;;2.90;1.65;;;;;;;-147.05;100.00;58721.66;5116064;28;20149;-65
2022/04/02 04:56:18;;;;;;;2.83;1.48;;;;;;;-147.05;100.00;58721.66;5128665;27;20059;-64
2022/04/02 04:58:46;;;;;;;5.47;1.75;;;;;;;-147.05;100.00;58721.66;5102765;28;20037;-65
2022/04/02 05:01:14;;;;;;;3.72;1.40;;;;;;;-147.05;100.00;58721.66;5129179;27;20130;-66
2022/04/02 05:03:41;;;;;;;2.75;1.50;;;;;;;-147.05;100.00;58721.66;5116385;28;20695;-66
2022/04/02 05:06:14;;;;;;;3.63;1.70;;;;;;;-147.05;100.00;58721.66;5086508;28;20099;-65
2022/04/02 05:08:48;;;;;;;2.28;1.35;;;;;;;-147.05;100.00;58721.66;5109245;28;20037;-65
2022/04/02 05:11:16;;;;;;;2.65;1.52;;;;;;;-147.05;100.00;58721.66;5118652;28;20635;-64
2022/04/02 05:13:49;;;;;;;1.95;1.20;;;;;;;-147.05;100.00;58721.66;5112525;28;20041;-65
2022/04/02 05:16:20;;;;;;;2.90;1.50;;;;;;;-147.05;100.00;58721.66;5111327;28;20044;-65
2022/04/02 05:18:48;;;;;;;2.05;1.55;;;;;;;-147.05;100.00;58721.66;5114905;28;20152;-66
2022/04/02 05:21:22;;;;;;;5.93;1.73;;;;;;;-147.05;100.00;58721.66;5115586;28;20123;-66
2022/04/02 05:23:49;;;;;;;4.72;1.73;;;;;;;-147.05;100.00;58721.66;5101957;28;20509;-65
2022/04/02 05:26:17;;;;;;;2.63;1.67;;;;;;;-147.05;100.00;58721.66;5115108;28;20048;-66
2022/04/02 05:28:56;;;;;;;;;;;;;;;-147.05;100.00;58721.66;5115111;28;20032;-65
2022/04/02 05:31:23;;;;;;;3.72;1.80;;;;;;;-147.05;100.00;58721.66;5112803;28;20684;-64
2022/04/02 05:33:50;;;;;;;2.70;1.65;;;;;;;-147.05;100.00;58721.66;5118983;28;20040;-66
2022/04/02 05:36:18;;;;;;;3.08;1.67;;;;;;;-147.05;100.00;58721.66;5106811;28;20159;-66
2022/04/02 05:38:44;;;;;;;2.97;1.55;;;;;;;-147.05;100.00;58721.66;5116788;28;20044;-66
2022/04/02 05:41:13;;;;;;;3.17;1.73;;;;;;;-147.05;100.00;58721.66;5112983;28;20498;-64
2022/04/02 05:43:40;;;;;;;2.63;1.50;;;;;;;-147.05;100.00;58721.66;5116036;28;20524;-64
2022/04/02 05:46:06;;;;;;;3.28;1.60;;;;;;;-147.05;100.00;58721.66;5105245;28;20040;-65
2022/04/02 05:48:34;;;;;;;4.38;1.88;;;;;;;-147.05;100.00;58721.66;5108957;27;20043;-64
2022/04/02 05:51:01;;;;;;;2.20;1.27;;;;;;;-147.05;100.00;58721.66;5116107;27;20036;-65
2022/04/02 05:53:28;;;;;;;2.83;1.38;;;;;;;-147.05;100.00;58721.66;5110749;28;20049;-65
2022/04/02 05:55:55;;;;;;;2.92;1.63;;;;;;;-147.05;100.00;58721.66;5113215;28;20083;-65
2022/04/02 05:58:23;;;;;;;4.35;1.65;;;;;;;-147.05;100.00;58721.66;5114772;27;20107;-65
2022/04/02 06:00:50;;;;;;;2.55;1.50;;;;;;;-147.05;100.00;58721.66;5101094;28;20046;-65
2022/04/02 06:03:19;;;;;;;3.58;1.60;;;;;;;-147.05;100.00;58721.66;5112444;28;20037;-66
2022/04/02 06:05:50;;;;;;;3.78;1.50;;;;;;;-147.05;100.00;58721.66;5113271;28;20863;-64
2022/04/02 06:08:17;;;;;;;2.47;1.50;;;;;;;-147.05;100.00;58721.66;5100768;27;20047;-64
2022/04/02 06:10:47;;;;;;;2.17;1.50;;;;;;;-147.05;100.00;58721.66;5111532;28;20088;-63
2022/04/02 06:13:14;;;;;;;3.85;1.48;;;;;;;-147.05;100.00;58721.66;5105702;28;20044;-64
2022/04/02 06:15:43;;;;;;;1.92;1.20;;;;;;;-147.05;100.00;58721.66;5102748;27;20832;-65
2022/04/02 06:18:11;;;;;;;3.03;1.40;;;;;;;-147.05;100.00;58721.66;5108387;28;20043;-65
2022/04/02 06:20:40;;;;;;;2.17;1.17;;;;;;;-147.05;100.00;58721.66;5110140;27;20044;-65
2022/04/02 06:23:08;;;;;;;2.97;1.73;;;;;;;-147.05;100.00;58721.66;5107533;27;20064;-65
2022/04/02 06:25:35;;;;;;;2.67;1.27;;;;;;;-147.05;100.00;58721.66;5103256;28;20841;-65
2022/04/02 06:28:02;;;;;;;6.63;1.83;;;;;;;-147.05;100.00;58721.66;5107890;28;20048;-66
2022/04/02 06:30:29;;;;;;;2.42;1.20;;;;;;;-147.05;100.00;58721.66;5105462;28;20040;-66
2022/04/02 06:33:00;;;;;;;4.25;1.63;;;;;;;-147.05;100.00;58721.66;5106549;28;20068;-66
2022/04/02 06:35:28;;;;;;;2.13;1.30;;;;;;;-147.05;100.00;58721.66;5109269;28;20106;-66
2022/04/02 06:37:56;;;;;;;3.08;1.70;;;;;;;-147.05;100.00;58721.66;5092152;28;20063;-66
2022/04/02 06:40:25;;;;;;;5.03;1.50;;;;;;;-147.05;100.00;58721.66;5110485;28;20903;-66
2022/04/02 06:42:52;;;;;;;4.80;1.20;;;;;;;-147.05;100.00;58721.66;5101601;28;20059;-65
2022/04/02 06:45:52;;;;;;;6.43;1.45;;;;;;;-147.05;100.00;58721.66;5107165;27;20106;-66
2022/04/02 06:48:20;;;;;;;4.28;1.70;;;;;;;-147.05;100.00;58721.66;5104979;27;20041;-66
2022/04/02 06:50:47;;;;;;;2.67;1.40;;;;;;;-147.05;100.00;58721.66;5103077;27;20047;-66
2022/04/02 06:53:15;;;;;;;1.95;1.50;;;;;;;-147.05;100.00;58721.66;5097974;27;20037;-66
2022/04/02 06:55:42;;;;;;;3.85;1.67;;;;;;;-147.05;100.00;58721.66;5103904;28;20089;-67
2022/04/02 06:58:23;;;;;;;3.63;1.63;;;;;;;-147.05;100.00;58721.66;5104348;27;20071;-65
2022/04/02 07:00:50;;;;;;;3.17;1.67;;;;;;;-147.05;100.00;58721.66;5104037;27;20116;-65
2022/04/02 07:03:17;;;;;;;6.15;1.73;;;;;;;-147.05;100.00;58721.66;5101012;28;20624;-65
2022/04/02 07:05:45;;;;;;;7.78;2.00;;;;;;;-147.05;100.00;58721.66;5097033;28;20492;-65
2022/04/02 07:08:12;;;;;;;2.95;1.77;;;;;;;-147.05;100.00;58721.66;5109523;28;20037;-66
2022/04/02 07:10:38;;;;;;;5.05;1.80;;;;;;;-147.05;100.00;58721.66;5110655;28;20048;-67
2022/04/02 07:13:06;;;;;;;3.88;1.80;;;;;;;-147.05;100.00;58721.66;5103487;27;20132;-66
2022/04/02 07:15:33;;;;;;;3.05;1.63;;;;;;;-147.05;100.00;58721.66;5103795;28;20045;-66
2022/04/02 07:18:10;;;;;;;3.20;1.65;;;;;;;-147.05;100.00;58721.66;5104480;28;20036;-65
2022/04/02 07:20:39;;;;;;;4.85;2.00;;;;;;;-147.05;100.00;58721.66;5097870;28;20036;-67
2022/04/02 07:23:09;;;;;;;6.20;2.00;;;;;;;-147.05;100.00;58721.66;5097859;28;20052;-66
2022/04/02 07:25:39;;;;;;;2.75;1.80;;;;;;;-147.05;100.00;58721.66;5106953;27;20032;-65
2022/04/02 07:28:07;;;;;;;3.55;2.03;;;;;;;-147.05;100.00;58721.66;5111146;27;20117;-66
2022/04/02 07:30:36;;;;;;;4.90;2.17;;;;;;;-147.05;100.00;58721.66;5106827;28;20338;-65
2022/04/02 07:33:04;;;;;;;4.47;2.13;;;;;;;-147.05;100.00;58721.66;5107448;27;20047;-66
2022/04/02 07:35:54;;;;;;;3.85;1.98;;;;;;;-147.05;100.00;58721.66;5113430;28;20043;-66
2022/04/02 07:38:34;;;;;;;2.55;1.80;;;;;;;-147.05;100.00;58721.66;5109549;28;20044;-65
2022/04/02 07:41:34;;;;;;;5.40;2.13;;;;;;;-147.05;100.00;58721.66;5109241;28;20123;-65
2022/04/02 07:44:22;;;;;;;5.60;2.33;;;;;;;-147.05;100.00;58721.66;5109563;28;20067;-65
2022/04/02 07:46:51;;;;;;;6.75;2.33;;;;;;;-147.05;100.00;58721.66;5107795;28;20047;-65
2022/04/02 07:49:21;;;;;;;4.60;1.80;;;;;;;-147.05;100.00;58721.66;5109648;28;20857;-64
2022/04/02 07:51:53;;;;;;;5.13;2.53;;;;;;;-147.05;100.00;58721.66;5108432;28;20263;-64
2022/04/02 07:54:25;;;;;;;3.13;1.90;;;;;;;-147.05;100.00;58721.66;5109667;28;20032;-65
2022/04/02 07:57:04;;;;;;;3.97;2.17;;;;;;;-147.05;100.00;58721.66;5104023;28;20050;-65
2022/04/02 07:59:42;;;;;;;5.53;2.33;;;;;;;-147.05;100.00;58721.66;5100775;28;20056;-66
2022/04/02 08:05:00;;;;;;;3.35;1.83;;;;;;;-147.05;100.00;58721.66;5112195;28;20084;-64
2022/04/02 08:07:30;;;;;;;4.95;2.78;;;;;;;-147.05;100.00;58721.66;5110649;28;20040;-65
2022/04/02 08:09:59;;;;;;;6.82;2.50;;;;;;;-147.05;100.00;58721.66;5100647;28;20808;-64
2022/04/02 08:12:28;;;;;;;4.85;2.90;;;;;;;-147.05;100.00;58721.66;5103953;28;20137;-65
2022/04/02 08:14:56;;;;;;;5.60;2.90;;;;;;;-147.05;100.00;58721.66;5114854;28;20079;-66
2022/04/02 08:17:23;;;;;;;5.53;2.53;;;;;;;-147.05;100.00;58721.66;5108131;27;20198;-66
2022/04/02 08:19:57;;;;;;;5.60;2.55;;;;;;;-147.05;100.00;58721.66;5110753;28;20049;-65
2022/04/02 08:22:25;;;;;;;4.88;2.30;;;;;;;-147.05;100.00;58721.66;5108583;28;20048;-65
2022/04/02 08:24:53;;;;;;;3.63;2.00;;;;;;;-147.05;100.00;58721.66;5107579;28;20047;-65
2022/04/02 08:27:45;;;;;;;4.70;2.38;;;;;;;-147.05;100.00;58721.66;5110594;27;20051;-65
2022/04/02 08:30:17;;;;;;;3.67;2.50;;;;;;;-147.05;100.00;58721.66;5108069;27;20621;-65
2022/04/02 08:33:12;;;;;;;5.85;2.30;;;;;;;-147.05;100.00;58721.66;5108341;28;20070;-65
2022/04/02 08:35:59;;;;;;;5.25;2.15;;;;;;;-147.05;100.00;58721.66;5108712;28;20468;-64
2022/04/02 08:38:51;;;;;;;4.20;2.28;;;;;;;-147.05;100.00;58721.66;5107556;28;20052;-65
2022/04/02 08:41:37;;;;;;;3.85;2.45;;;;;;;-147.05;100.00;58721.66;5115445;28;20076;-65
2022/04/02 08:44:19;;;;;;;3.70;2.08;;;;;;;-147.05;100.00;58721.66;5105288;28;20045;-65
2022/04/02 08:46:58;;;;;;;5.60;3.13;;;;;;;-147.05;100.00;58721.66;5110871;28;20044;-64
2022/04/02 08:49:50;;;;;;;4.55;2.33;;;;;;;-147.05;100.00;58721.66;5105902;28;20445;-64
2022/04/02 08:52:28;;;;;;;4.68;1.80;;;;;;;-147.05;100.00;58721.66;5106974;28;20088;-65
2022/04/02 08:55:19;;;;;;;5.38;2.83;;;;;;;-147.05;100.00;58721.66;5102982;28;20037;-65
2022/04/02 08:58:05;;;;;;;3.80;2.70;;;;;;;-147.05;100.00;58721.66;5104979;28;20060;-65
2022/04/02 09:00:39;;;;;;;3.97;2.38;;;;;;;-147.05;100.00;58721.66;5100853;28;20074;-65
2022/04/02 09:03:17;;;;;;;6.53;3.17;;;;;;;-147.05;100.00;58721.66;5108496;28;20037;-64
2022/04/02 09:06:22;;;;;;;7.45;3.38;;;;;;;-147.05;100.00;58721.66;5104698;28;20044;-66
2022/04/02 09:09:03;;;;;;;4.65;2.95;;;;;;;-147.05;100.00;58721.66;5103258;28;20043;-65
2022/04/02 09:12:00;;;;;;;3.95;2.58;;;;;;;-147.05;100.00;58721.66;5102984;28;20045;-65
2022/04/02 09:15:08;;;;;;;4.72;2.75;;;;;;;-147.05;100.00;58721.66;5106066;27;20846;-64
2022/04/02 09:18:00;;;;;;;7.20;2.60;;;;;;;-147.05;100.00;58721.66;5097603;28;20056;-65
2022/04/02 09:20:55;;;;;;;6.60;3.13;;;;;;;-147.05;100.00;58721.66;5113999;27;20060;-65
2022/04/02 09:23:33;;;;;;;;;;;;;;;-147.05;100.00;58721.66;5096649;28;20047;-64
2022/04/02 09:26:23;;;;;;;4.68;2.90;;;;;;;-147.05;100.00;58721.66;5100435;28;19924;-66
2022/04/02 09:29:16;;;;;;;5.97;3.08;;;;;;;-147.05;100.00;58721.66;5112096;28;20403;-65
2022/04/02 09:31:55;;;;;;;4.60;2.97;;;;;;;-147.05;100.00;58721.66;5112252;27;20064;-66
2022/04/02 09:35:06;;;;;;;5.93;2.67;;;;;;;-147.05;100.00;58721.66;5097308;27;20044;-65
2022/04/02 09:37:33;;;;;;;6.47;2.78;;;;;;;-147.05;100.00;58721.66;5092299;28;20059;-65
2022/04/02 09:40:06;;;;;;;4.65;2.92;;;;;;;-147.05;100.00;58721.66;5103859;28;20539;-64
2022/04/02 09:42:43;;;;;;;5.88;2.97;;;;;;;-147.05;100.00;58721.66;5109719;27;20045;-65
2022/04/02 09:45:16;;;;;;;4.72;2.75;;;;;;;-147.05;100.00;58721.66;5105079;27;20044;-65
2022/04/02 09:48:11;;;;;;;4.65;3.13;;;;;;;-147.05;100.00;58721.66;5115010;28;20044;-64
2022/04/02 09:50:40;;;;;;;6.10;2.97;;;;;;;-147.05;100.00;58721.66;5108737;28;20076;-65
2022/04/02 09:53:25;;;;;;;5.05;3.00;;;;;;;-147.05;100.00;58721.66;5100204;27;20036;-64
2022/04/02 09:56:01;;;;;;;6.20;2.88;;;;;;;-147.05;100.00;58721.66;5102282;28;20040;-65
2022/04/02 09:58:57;;;;;;;4.07;2.50;;;;;;;-147.05;100.00;58721.66;5103538;28;20044;-66
2022/04/02 10:01:29;;;;;;;3.88;2.20;;;;;;;-147.05;100.00;58721.66;5106628;28;20040;-64
2022/04/02 10:04:29;;;;;;;5.22;3.13;;;;;;;-147.05;100.00;58721.66;5105069;28;20178;-66
2022/04/02 10:06:58;;;;;;;4.50;2.83;;;;;;;-147.05;100.00;58721.66;5106295;28;20046;-66
2022/04/02 10:09:32;;;;;;;6.00;3.05;;;;;;;-147.05;100.00;58721.66;5107883;28;20032;-65
2022/04/02 10:12:01;;;;;;;6.05;2.97;;;;;;;-147.05;100.00;58721.66;5107518;28;20483;-65
2022/04/02 10:14:33;;;;;;;7.00;3.20;;;;;;;-147.05;100.00;58721.66;5108784;27;20037;-65
2022/04/02 10:17:06;;;;;;;14.77;3.45;;;;;;;-147.05;100.00;58721.66;5104051;28;20509;-64
2022/04/02 10:19:37;;;;;;;5.47;3.22;;;;;;;-147.05;100.00;58721.66;5105631;28;20049;-65
2022/04/02 10:24:25;;;;;;;4.55;3.08;;;;;;;5.99;53.90;101785.94;5152120;27;20132;-66
2022/04/02 10:26:56;;;;;;;6.15;3.10;;;;;;;6.12;52.65;101778.09;5134195;27;20957;-65
2022/04/02 10:29:43;;;;;;;7.18;3.08;;;;;;;6.25;51.78;101786.88;5135566;27;20421;-65
2022/04/02 10:32:28;;;;;;;5.85;2.55;;;;;;;6.12;50.85;101772.84;5125222;27;20035;-65
2022/04/02 10:35:03;;;;;;;7.85;2.92;;;;;;;6.20;50.70;101765.91;5141892;27;20071;-65
2022/04/02 10:37:45;;;;;;;5.65;2.72;;;;;;;6.24;50.63;101769.41;5143237;27;20067;-66
2022/04/02 10:40:19;;;;;;;4.70;2.30;;;;;;;6.26;50.36;101781.63;5146016;27;20046;-66
2022/04/02 10:43:19;;;;;;;3.40;2.47;;;;;;;6.77;48.64;101767.75;5137511;27;20036;-65
2022/04/02 10:45:47;;;;;;;5.53;3.00;;;;;;;6.93;49.18;101764.22;5116987;27;20418;-65
2022/04/02 10:48:33;;;;;;;6.20;2.25;;;;;;;6.95;47.53;101756.38;5116248;27;20046;-66
2022/04/02 10:51:02;;;;;;;8.95;3.08;;;;;;;6.87;49.48;101752.91;5121469;27;20068;-65
2022/04/02 10:53:32;;;;;;;4.82;2.67;;;;;;;7.03;49.33;101769.47;5113313;27;20043;-65
2022/04/02 10:56:08;;;;;;;4.20;2.35;;;;;;;7.00;48.35;101749.38;5116991;27;20043;-65
2022/04/02 10:58:39;;;;;;;4.78;2.30;;;;;;;6.90;47.08;101742.38;5120994;27;20157;-65
2022/04/02 11:01:10;;;;;;;4.03;2.35;;;;;;;6.49;47.06;101755.47;5091466;27;20048;-65
2022/04/02 11:03:39;;;;;;;4.18;2.40;;;;;;;6.26;47.73;101770.31;5111613;27;20659;-65
2022/04/02 11:06:08;;;;;;;4.25;1.95;;;;;;;6.21;47.33;101754.53;5119289;27;20046;-64
2022/04/02 11:08:35;;;;;;;5.63;2.10;;;;;;;6.14;46.43;101758.91;5124364;27;20133;-65
2022/04/02 11:11:19;;;;;;;3.65;2.00;;;;;;;6.12;46.75;101759.75;5110780;27;20050;-65
2022/04/02 11:14:00;;;;;;;2.77;1.70;;;;;;;6.39;46.84;101756.34;5109308;27;20040;-65
2022/04/02 11:16:40;;;;;;;3.75;1.50;;;;;;;6.64;41.21;101764.25;5111133;27;20127;-65
2022/04/02 11:22:06;;;;;;;4.32;1.80;;;;;;;7.03;41.68;101751.13;5118628;27;20512;-65
2022/04/02 11:25:00;;;;;;;3.38;1.60;;;;;;;6.91;41.53;101755.53;5094763;27;20582;-65
2022/04/02 11:27:29;;;;;;;3.88;1.75;;;;;;;6.85;42.58;101755.50;5119942;27;20040;-65
2022/04/02 11:30:11;;;;;;;3.55;1.80;;;;;;;7.02;42.97;101762.50;5104585;27;20075;-65
2022/04/02 11:32:44;;;;;;;2.83;1.70;;;;;;;7.43;42.82;101767.69;5117175;27;20094;-65
2022/04/02 11:35:21;;;;;;;4.60;1.92;;;;;;;7.45;40.47;101758.06;5103683;27;20045;-66
2022/04/02 11:38:14;;;;;;;3.15;1.80;;;;;;;7.22;41.48;101755.50;5101667;28;20037;-66
2022/04/02 11:40:52;;;;;;;1.58;1.30;;;;;;;7.07;40.14;101761.59;5103381;28;20048;-66
2022/04/02 11:43:35;;;;;;;3.10;1.55;;;;;;;6.93;40.36;101758.13;5099528;28;20072;-67
2022/04/02 11:46:09;;;;;;;4.25;1.70;;;;;;;6.83;40.77;101767.72;5103505;28;20080;-66
2022/04/02 11:48:59;;;;;;;3.38;1.85;;;;;;;6.61;40.75;101780.84;5107734;28;20037;-65
2022/04/02 11:51:31;;;;;;;3.20;2.10;;;;;;;6.53;41.86;101764.22;5102834;28;20039;-64
2022/04/02 11:54:08;;;;;;;3.53;1.67;;;;;;;6.56;41.07;101772.09;5115345;28;20036;-65